createdAt,value
2019-02-04T00:01:22.625Z,0.14
2019-02-04T00:03:52.415Z,0.09
2019-02-04T00:06:21.651Z,0.09
2019-02-04T00:08:50.899Z,0.14
2019-02-04T00:11:20.181Z,0.03
2019-02-04T00:13:49.458Z,0.03
2019-02-04T00:16:18.998Z,0.08
2019-02-04T00:18:48.381Z,0.19
2019-02-04T00:21:17.628Z,0.12
2019-02-04T00:23:49.292Z,0.18
2019-02-04T00:26:18.527Z,0.11
2019-02-04T00:28:47.748Z,0.07
2019-02-04T00:31:17.000Z,0.09
2019-02-04T00:33:48.076Z,0.06
2019-02-04T00:36:17.320Z,0.09
2019-02-04T00:38:47.687Z,0.03
2019-02-04T00:41:16.926Z,0.15
2019-02-04T00:43:46.151Z,-0.02
2019-02-04T00:46:16.072Z,0.06
2019-02-04T00:48:45.440Z,-0.05
2019-02-04T00:51:14.680Z,0.07
2019-02-04T00:53:44.894Z,0.11
2019-02-04T00:56:15.445Z,0.08
2019-02-04T00:58:44.686Z,0.03
2019-02-04T01:01:13.926Z,0.00
2019-02-04T01:03:43.159Z,0.05
2019-02-04T01:06:12.419Z,0.07
2019-02-04T01:08:41.808Z,0.09
2019-02-04T01:11:11.159Z,0.12
2019-02-04T01:13:40.381Z,0.08
2019-02-04T01:16:10.024Z,0.15
2019-02-04T01:18:39.314Z,0.08
2019-02-04T01:21:08.388Z,0.06
2019-02-04T01:23:37.821Z,0.20
2019-02-04T01:26:07.107Z,0.14
2019-02-04T01:28:37.228Z,0.15
2019-02-04T01:31:06.287Z,0.19
2019-02-04T01:33:36.126Z,0.18
2019-02-04T01:36:05.489Z,0.18
2019-02-04T01:38:36.199Z,0.11
2019-02-04T01:41:05.410Z,0.03
2019-02-04T01:43:34.679Z,-0.05
2019-02-04T01:46:03.925Z,-0.14
2019-02-04T01:48:33.165Z,-0.18
2019-02-04T01:51:04.221Z,-0.12
2019-02-04T01:53:33.476Z,-0.07
2019-02-04T01:56:03.075Z,-0.07
2019-02-04T01:58:32.348Z,-0.05
2019-02-04T02:01:01.938Z,-0.02
2019-02-04T02:03:31.226Z,-0.10
2019-02-04T02:06:00.796Z,-0.17
2019-02-04T02:08:30.033Z,-0.23
2019-02-04T02:11:02.415Z,-0.20
2019-02-04T02:13:32.897Z,-0.22
2019-02-04T02:16:02.116Z,-0.18
2019-02-04T02:18:31.413Z,-0.10
2019-02-04T02:21:00.658Z,-0.18
2019-02-04T02:23:30.193Z,-0.16
2019-02-04T02:25:59.410Z,-0.35
2019-02-04T02:28:28.662Z,-0.34
2019-02-04T02:30:57.920Z,-0.40
2019-02-04T02:33:27.171Z,-0.42
2019-02-04T02:35:56.751Z,-0.48
2019-02-04T02:38:26.167Z,-0.47
2019-02-04T02:40:55.402Z,-0.45
2019-02-04T02:43:24.640Z,-0.42
2019-02-04T02:45:55.062Z,-0.52
2019-02-04T02:48:24.336Z,-0.51
2019-02-04T02:50:53.562Z,-0.46
2019-02-04T02:53:23.186Z,-0.49
2019-02-04T02:55:52.421Z,-0.49
2019-02-04T02:58:21.745Z,-0.48
2019-02-04T03:00:50.934Z,-0.45
2019-02-04T03:03:20.193Z,-0.44
2019-02-04T03:05:50.006Z,-0.46
2019-02-04T03:08:19.267Z,-0.55
2019-02-04T03:10:48.511Z,-0.56
2019-02-04T03:13:21.311Z,-0.60
2019-02-04T03:15:50.563Z,-0.55
2019-02-04T03:18:19.815Z,-0.55
2019-02-04T03:20:49.313Z,-0.52
2019-02-04T03:23:18.561Z,-0.42
2019-02-04T03:25:47.803Z,-0.41
2019-02-04T03:28:17.064Z,-0.46
2019-02-04T03:30:46.282Z,-0.47
2019-02-04T03:33:17.214Z,-0.47
2019-02-04T03:35:46.455Z,-0.49
2019-02-04T03:38:15.745Z,-0.50
2019-02-04T03:40:44.982Z,-0.50
2019-02-04T03:43:14.627Z,-0.54
2019-02-04T03:45:43.883Z,-0.51
2019-02-04T03:48:13.150Z,-0.61
2019-02-04T03:50:42.398Z,-0.59
2019-02-04T03:53:11.985Z,-0.56
2019-02-04T03:55:41.243Z,-0.65
2019-02-04T03:58:10.493Z,-0.64
2019-02-04T04:00:39.748Z,-0.60
2019-02-04T04:03:09.649Z,-0.68
2019-02-04T04:05:38.911Z,-0.72
2019-02-04T04:08:08.497Z,-0.78
2019-02-04T04:10:37.742Z,-0.85
2019-02-04T04:13:06.968Z,-0.85
2019-02-04T04:15:36.240Z,-0.89
2019-02-04T04:18:15.636Z,-0.96
2019-02-04T04:20:36.411Z,-0.98
2019-02-04T04:23:05.630Z,-1.04
2019-02-04T04:25:35.143Z,-1.18
2019-02-04T04:28:04.374Z,-1.22
2019-02-04T04:30:34.621Z,-1.20
2019-02-04T04:33:03.853Z,-1.23
2019-02-04T04:35:33.099Z,-1.22
2019-02-04T04:38:02.325Z,-1.20
2019-02-04T04:40:31.581Z,-1.24
2019-02-04T04:43:00.797Z,-1.23
2019-02-04T04:45:31.684Z,-1.40
2019-02-04T04:48:00.959Z,-1.47
2019-02-04T04:50:30.201Z,-1.46
2019-02-04T04:52:59.447Z,-1.56
2019-02-04T04:55:28.686Z,-1.61
2019-02-04T04:57:57.909Z,-1.69
2019-02-04T05:00:29.713Z,-1.86
2019-02-04T05:02:59.893Z,-1.81
2019-02-04T05:05:29.147Z,-1.76
2019-02-04T05:07:58.358Z,-1.89
2019-02-04T05:10:27.716Z,-1.94
2019-02-04T05:12:56.950Z,-1.91
2019-02-04T05:15:28.158Z,-1.90
2019-02-04T05:17:57.645Z,-1.90
2019-02-04T05:20:27.015Z,-1.97
2019-02-04T05:22:56.348Z,-2.09
2019-02-04T05:25:25.577Z,-2.20
2019-02-04T05:27:55.208Z,-2.22
2019-02-04T05:30:25.429Z,-2.17
2019-02-04T05:32:55.614Z,-2.13
2019-02-04T05:35:25.428Z,-2.12
2019-02-04T05:37:56.841Z,-2.02
2019-02-04T05:40:26.059Z,-1.96
2019-02-04T05:42:55.318Z,-1.94
2019-02-04T05:45:24.542Z,-1.90
2019-02-04T05:47:53.791Z,-1.86
2019-02-04T05:50:23.047Z,-1.96
2019-02-04T05:52:52.306Z,-1.94
2019-02-04T05:55:23.067Z,-2.18
2019-02-04T05:57:53.163Z,-2.39
2019-02-04T06:00:40.300Z,-2.65
2019-02-04T06:03:09.540Z,-2.72
2019-02-04T06:05:38.757Z,-2.64
2019-02-04T06:08:08.029Z,-2.65
2019-02-04T06:10:37.427Z,-2.70
2019-02-04T06:13:08.950Z,-2.76
2019-02-04T06:15:38.180Z,-2.89
2019-02-04T06:18:07.432Z,-2.96
2019-02-04T06:20:39.363Z,-2.95
2019-02-04T06:23:08.615Z,-2.92
2019-02-04T06:25:37.832Z,-2.89
2019-02-04T06:28:07.553Z,-2.95
2019-02-04T06:30:36.763Z,-2.96
2019-02-04T06:33:07.588Z,-2.88
2019-02-04T06:35:38.050Z,-2.78
2019-02-04T06:38:07.313Z,-2.79
2019-02-04T06:40:36.853Z,-2.70
2019-02-04T06:43:06.967Z,-2.70
2019-02-04T06:45:36.185Z,-2.72
2019-02-04T06:48:06.347Z,-2.73
2019-02-04T06:50:35.564Z,-2.72
2019-02-04T06:53:05.126Z,-2.71
2019-02-04T06:55:34.793Z,-2.64
2019-02-04T06:58:04.103Z,-2.58
2019-02-04T07:00:34.906Z,-2.50
2019-02-04T07:03:04.544Z,-2.55
2019-02-04T07:05:43.489Z,-2.58
2019-02-04T07:08:07.621Z,-2.49
2019-02-04T07:10:36.844Z,-2.48
2019-02-04T07:13:06.089Z,-2.43
2019-02-04T07:15:35.405Z,-2.37
2019-02-04T07:18:06.875Z,-2.27
2019-02-04T07:20:36.109Z,-2.15
2019-02-04T07:23:05.350Z,-2.06
2019-02-04T07:25:34.553Z,-1.92
2019-02-04T07:28:03.797Z,-1.94
2019-02-04T07:30:33.415Z,-1.77
2019-02-04T07:33:02.661Z,-1.62
2019-02-04T07:35:32.193Z,-1.52
2019-02-04T07:38:01.454Z,-1.61
2019-02-04T07:40:32.193Z,-1.78
2019-02-04T07:43:01.485Z,-1.49
2019-02-04T07:45:32.092Z,-1.33
2019-02-04T07:48:01.309Z,-1.26
2019-02-04T07:50:30.544Z,-1.13
2019-02-04T07:52:59.767Z,-1.13
2019-02-04T07:55:29.010Z,-0.96
2019-02-04T07:57:58.520Z,-1.30
2019-02-04T08:00:30.232Z,-1.48
2019-02-04T08:02:59.793Z,-1.30
2019-02-04T08:05:29.566Z,-1.18
2019-02-04T08:07:58.686Z,-1.11
2019-02-04T08:10:27.941Z,-1.17
2019-02-04T08:13:01.470Z,-1.07
2019-02-04T08:15:30.502Z,-1.16
2019-02-04T08:17:59.750Z,-1.15
2019-02-04T08:20:29.012Z,-1.00
2019-02-04T08:22:58.252Z,-1.53
2019-02-04T08:25:27.706Z,-1.77
2019-02-04T08:27:57.686Z,-1.71
2019-02-04T08:30:29.637Z,-1.30
2019-02-04T08:32:58.950Z,-0.93
2019-02-04T08:35:30.351Z,-0.65
2019-02-04T08:37:59.578Z,-0.22
2019-02-04T08:40:28.841Z,0.27
2019-02-04T08:42:58.426Z,0.56
2019-02-04T08:45:27.670Z,0.67
2019-02-04T08:47:56.885Z,0.66
2019-02-04T08:50:26.533Z,0.74
2019-02-04T08:52:55.757Z,0.87
2019-02-04T08:55:25.503Z,0.95
2019-02-04T08:57:55.042Z,1.10
2019-02-04T09:00:24.594Z,1.18
2019-02-04T09:02:54.379Z,1.32
2019-02-04T09:05:24.783Z,1.22
2019-02-04T09:07:54.014Z,1.53
2019-02-04T09:10:31.545Z,1.40
2019-02-04T09:13:01.557Z,0.88
2019-02-04T09:15:30.796Z,0.41
2019-02-04T09:18:03.557Z,0.63
2019-02-04T09:20:32.828Z,0.60
2019-02-04T09:23:02.059Z,0.83
2019-02-04T09:25:31.755Z,0.87
2019-02-04T09:28:02.309Z,0.64
2019-02-04T09:30:31.549Z,0.75
2019-02-04T09:33:01.182Z,1.46
2019-02-04T09:35:30.445Z,1.92
2019-02-04T09:37:59.849Z,2.33
2019-02-04T09:40:35.323Z,2.09
2019-02-04T09:43:05.733Z,1.43
2019-02-04T09:45:34.993Z,1.24
2019-02-04T09:48:04.768Z,1.29
2019-02-04T09:50:36.662Z,0.87
2019-02-04T09:53:06.464Z,0.69
2019-02-04T09:55:37.114Z,-0.19
2019-02-04T09:58:06.533Z,-0.34
2019-02-04T10:00:36.611Z,-0.56
2019-02-04T10:03:07.101Z,-0.73
2019-02-04T10:05:36.424Z,-0.24
2019-02-04T10:08:06.409Z,0.03
2019-02-04T10:10:35.739Z,0.15
2019-02-04T10:13:05.875Z,0.11
2019-02-04T10:15:39.384Z,-0.09
2019-02-04T10:18:09.989Z,-0.53
2019-02-04T10:20:39.717Z,-0.25
2019-02-04T10:23:09.224Z,0.20
2019-02-04T10:25:40.236Z,0.57
2019-02-04T10:28:10.380Z,0.60
2019-02-04T10:30:39.574Z,0.67
2019-02-04T10:33:09.191Z,0.98
2019-02-04T10:35:38.532Z,1.13
2019-02-04T10:38:08.073Z,1.45
2019-02-04T10:40:37.286Z,2.06
2019-02-04T10:43:13.744Z,2.41
2019-02-04T10:45:43.348Z,2.37
2019-02-04T10:48:12.652Z,2.19
2019-02-04T10:50:46.700Z,1.56
2019-02-04T10:53:15.253Z,1.49
2019-02-04T10:55:44.739Z,1.07
2019-02-04T10:58:14.509Z,0.82
2019-02-04T11:00:44.187Z,1.32
2019-02-04T11:03:14.501Z,1.60
2019-02-04T11:05:44.388Z,1.86
2019-02-04T11:08:14.128Z,2.09
2019-02-04T11:10:44.142Z,2.06
2019-02-04T11:13:15.475Z,2.04
2019-02-04T11:15:45.725Z,1.99
2019-02-04T11:18:15.787Z,2.23
2019-02-04T11:20:57.199Z,2.80
2019-02-04T11:23:16.512Z,3.06
2019-02-04T11:25:45.763Z,2.23
2019-02-04T11:28:15.420Z,1.57
2019-02-04T11:30:47.361Z,1.51
2019-02-04T11:33:16.597Z,1.52
2019-02-04T11:35:45.941Z,1.60
2019-02-04T11:38:22.632Z,1.86
2019-02-04T11:40:52.252Z,2.19
2019-02-04T11:43:21.503Z,2.35
2019-02-04T11:45:50.707Z,2.32
2019-02-04T11:48:20.071Z,2.82
2019-02-04T11:50:49.613Z,2.56
2019-02-04T11:53:18.855Z,2.25
2019-02-04T11:55:48.467Z,1.63
2019-02-04T11:58:17.722Z,1.70
2019-02-04T12:00:47.397Z,1.87
2019-02-04T12:03:16.974Z,1.78
2019-02-04T12:05:46.212Z,1.42
2019-02-04T12:08:17.703Z,1.40
2019-02-04T12:10:56.700Z,1.48
2019-02-04T12:13:27.888Z,1.75
2019-02-04T12:15:59.311Z,1.72
2019-02-04T12:18:28.668Z,1.57
2019-02-04T12:20:57.897Z,1.44
2019-02-04T12:23:27.145Z,1.35
2019-02-04T12:25:56.373Z,1.06
2019-02-04T12:28:25.668Z,0.63
2019-02-04T12:30:54.892Z,0.56
2019-02-04T12:33:26.889Z,0.80
2019-02-04T12:35:56.570Z,1.12
2019-02-04T12:38:25.838Z,1.29
2019-02-04T12:40:55.927Z,1.56
2019-02-04T12:43:25.207Z,1.54
2019-02-04T12:45:55.341Z,1.56
2019-02-04T12:48:24.692Z,1.37
2019-02-04T12:50:55.276Z,1.31
2019-02-04T12:53:24.532Z,1.40
2019-02-04T12:55:53.843Z,1.20
2019-02-04T12:58:23.100Z,1.22
2019-02-04T13:00:52.375Z,1.59
2019-02-04T13:03:21.641Z,1.94
2019-02-04T13:05:53.424Z,1.93
2019-02-04T13:08:22.656Z,1.85
2019-02-04T13:10:51.897Z,2.14
2019-02-04T13:13:22.615Z,2.05
2019-02-04T13:15:51.960Z,2.32
2019-02-04T13:18:21.519Z,2.20
2019-02-04T13:20:50.963Z,1.74
2019-02-04T13:23:20.202Z,0.65
2019-02-04T13:25:49.847Z,0.42
2019-02-04T13:28:23.027Z,0.36
2019-02-04T13:30:52.302Z,0.19
2019-02-04T13:33:22.227Z,-0.36
2019-02-04T13:35:51.305Z,-0.22
2019-02-04T13:38:20.543Z,0.15
2019-02-04T13:40:49.836Z,0.12
2019-02-04T13:43:19.202Z,-0.19
2019-02-04T13:45:48.543Z,-0.49
2019-02-04T13:48:17.902Z,-0.87
2019-02-04T13:50:47.159Z,-0.87
2019-02-04T13:53:16.378Z,-0.80
2019-02-04T13:55:51.737Z,-0.71
2019-02-04T13:58:22.261Z,-0.62
2019-02-04T14:00:51.823Z,-0.59
2019-02-04T14:03:21.047Z,-0.67
2019-02-04T14:05:50.443Z,-0.87
2019-02-04T14:08:19.676Z,-0.89
2019-02-04T14:10:49.402Z,-1.04
2019-02-04T14:13:19.956Z,-0.69
2019-02-04T14:15:49.356Z,-0.55
2019-02-04T14:18:18.687Z,-0.49
2019-02-04T14:20:47.944Z,-0.44
2019-02-04T14:23:17.362Z,-0.30
2019-02-04T14:25:46.618Z,-0.23
2019-02-04T14:28:16.145Z,-0.16
2019-02-04T14:30:46.962Z,-0.16
2019-02-04T14:33:16.199Z,-0.17
2019-02-04T14:35:45.443Z,-0.04
2019-02-04T14:38:14.664Z,0.03
2019-02-04T14:40:44.214Z,0.14
2019-02-04T14:43:59.117Z,-0.16
2019-02-04T14:47:10.778Z,0.02
2019-02-04T14:50:08.924Z,-0.05
2019-02-04T14:52:53.879Z,0.03
2019-02-04T14:56:07.876Z,0.22
2019-02-04T14:59:04.381Z,0.46
2019-02-04T15:02:10.080Z,0.53
2019-02-04T15:04:54.266Z,0.58
2019-02-04T15:08:06.066Z,0.55
2019-02-04T15:10:50.438Z,0.29
2019-02-04T15:13:34.884Z,-0.07
2019-02-04T15:16:48.052Z,-0.36
2019-02-04T15:19:53.798Z,-0.35
2019-02-04T15:22:47.250Z,-0.25
2019-02-04T15:25:48.368Z,-0.26
2019-02-04T15:28:29.604Z,-0.26
2019-02-04T15:31:14.929Z,-0.24
2019-02-04T15:34:15.282Z,-0.56
2019-02-04T15:37:28.809Z,-0.72
2019-02-04T15:40:32.498Z,-0.77
2019-02-04T15:43:48.926Z,-1.00
2019-02-04T15:46:31.586Z,-0.96
2019-02-04T15:49:50.852Z,-0.95
2019-02-04T15:52:18.141Z,-0.99
2019-02-04T15:54:49.424Z,-1.06
2019-02-04T15:57:19.297Z,-1.08
2019-02-04T15:59:48.709Z,-0.96
2019-02-04T16:02:17.947Z,-0.79
2019-02-04T16:04:47.237Z,-0.70
2019-02-04T16:07:16.724Z,-0.71
2019-02-04T16:09:45.969Z,-0.60
2019-02-04T16:12:15.629Z,-0.60
2019-02-04T16:14:44.876Z,-0.62
2019-02-04T16:17:14.326Z,-0.55
2019-02-04T16:19:43.583Z,-0.53
2019-02-04T16:22:12.807Z,-0.55
2019-02-04T16:24:42.334Z,-0.50
2019-02-04T16:27:12.041Z,-0.66
2019-02-04T16:29:41.288Z,-0.72
2019-02-04T16:32:11.331Z,-0.81
2019-02-04T16:34:40.583Z,-0.72
2019-02-04T16:37:09.807Z,-0.70
2019-02-04T16:39:39.055Z,-0.71
2019-02-04T16:42:08.561Z,-0.71
2019-02-04T16:44:37.820Z,-0.69
2019-02-04T16:47:07.048Z,-0.68
2019-02-04T16:49:37.601Z,-0.68
2019-02-04T16:52:06.835Z,-0.69
2019-02-04T16:54:38.351Z,-0.67
2019-02-04T16:57:07.599Z,-0.69
2019-02-04T16:59:36.877Z,-0.68
2019-02-04T17:02:06.192Z,-0.73
2019-02-04T17:04:35.440Z,-0.77
2019-02-04T17:07:05.240Z,-0.74
2019-02-04T17:09:34.506Z,-0.73
2019-02-04T17:12:04.720Z,-0.84
2019-02-04T17:14:33.959Z,-0.90
2019-02-04T17:17:03.214Z,-0.91
2019-02-04T17:19:32.436Z,-0.97
2019-02-04T17:22:01.881Z,-0.95
2019-02-04T17:24:31.098Z,-0.97
2019-02-04T17:27:00.363Z,-0.97
2019-02-04T17:29:29.594Z,-0.98
2019-02-04T17:32:00.527Z,-1.02
2019-02-04T17:34:29.873Z,-1.12
2019-02-04T17:36:59.138Z,-1.19
2019-02-04T17:39:28.371Z,-1.28
2019-02-04T17:41:57.613Z,-1.41
2019-02-04T17:44:26.850Z,-1.45
2019-02-04T17:46:56.102Z,-1.52
2019-02-04T17:49:25.418Z,-1.63
2019-02-04T17:51:55.063Z,-1.71
2019-02-04T17:54:24.546Z,-1.70
2019-02-04T17:56:53.791Z,-1.72
2019-02-04T17:59:23.360Z,-1.67
2019-02-04T18:01:52.708Z,-1.62
2019-02-04T18:04:22.703Z,-1.54
2019-02-04T18:06:52.076Z,-1.50
2019-02-04T18:09:21.682Z,-1.46
2019-02-04T18:11:50.922Z,-1.43
2019-02-04T18:14:20.143Z,-1.53
2019-02-04T18:16:49.404Z,-1.40
2019-02-04T18:19:18.614Z,-1.47
2019-02-04T18:21:47.874Z,-1.54
2019-02-04T18:24:17.377Z,-1.51
2019-02-04T18:26:46.623Z,-1.59
2019-02-04T18:29:15.875Z,-1.65
2019-02-04T18:31:45.166Z,-1.65
2019-02-04T18:34:14.382Z,-1.70
2019-02-04T18:36:43.647Z,-1.74
2019-02-04T18:39:14.592Z,-1.79
2019-02-04T18:41:51.485Z,-1.92
2019-02-04T18:44:21.964Z,-1.92
2019-02-04T18:46:51.715Z,-1.90
2019-02-04T18:49:20.953Z,-1.89
2019-02-04T18:51:50.214Z,-2.02
2019-02-04T18:54:19.798Z,-2.00
2019-02-04T18:56:49.068Z,-2.09
2019-02-04T18:59:18.347Z,-2.07
2019-02-04T19:01:50.083Z,-2.15
2019-02-04T19:04:19.320Z,-2.20
2019-02-04T19:06:48.569Z,-2.25
2019-02-04T19:09:17.789Z,-2.28
2019-02-04T19:11:47.413Z,-2.30
2019-02-04T19:14:16.690Z,-2.29
2019-02-04T19:16:45.933Z,-2.27
2019-02-04T19:19:15.200Z,-2.19
2019-02-04T19:21:44.438Z,-2.18
2019-02-04T19:24:13.698Z,-2.31
2019-02-04T19:26:44.251Z,-2.39
2019-02-04T19:29:13.539Z,-2.55
2019-02-04T19:31:42.773Z,-2.54
2019-02-04T19:34:12.338Z,-2.76
2019-02-04T19:36:45.865Z,-2.79
2019-02-04T19:39:15.288Z,-2.92
2019-02-04T19:41:44.523Z,-3.02
2019-02-04T19:44:13.758Z,-3.00
2019-02-04T19:46:43.466Z,-3.01
2019-02-04T19:49:12.713Z,-3.04
2019-02-04T19:51:43.054Z,-3.09
2019-02-04T19:54:21.319Z,-3.23
2019-02-04T19:56:43.908Z,-3.25
2019-02-04T19:59:14.482Z,-3.48
2019-02-04T20:01:43.712Z,-3.58
2019-02-04T20:04:14.176Z,-3.48
2019-02-04T20:06:43.411Z,-3.38
2019-02-04T20:09:13.089Z,-3.42
2019-02-04T20:11:42.300Z,-3.42
2019-02-04T20:14:11.551Z,-3.60
2019-02-04T20:16:40.799Z,-3.50
2019-02-04T20:19:10.054Z,-3.38
2019-02-04T20:21:39.293Z,-3.47
2019-02-04T20:24:08.733Z,-3.54
2019-02-04T20:26:37.969Z,-3.53
2019-02-04T20:29:07.718Z,-3.48
2019-02-04T20:31:36.939Z,-3.48
2019-02-04T20:34:06.453Z,-3.52
2019-02-04T20:36:35.993Z,-3.53
2019-02-04T20:39:11.322Z,-3.58
2019-02-04T20:41:42.851Z,-3.68
2019-02-04T20:44:12.485Z,-3.68
2019-02-04T20:46:41.740Z,-3.65
2019-02-04T20:49:10.975Z,-4.02
2019-02-04T20:51:40.026Z,-4.15
2019-02-04T20:54:19.477Z,-4.22
2019-02-04T20:56:40.264Z,-4.74
2019-02-04T20:59:09.828Z,-4.70
2019-02-04T21:01:39.394Z,-4.90
2019-02-04T21:04:08.659Z,-4.86
2019-02-04T21:06:37.902Z,-4.97
2019-02-04T21:09:09.607Z,-4.91
2019-02-04T21:11:39.695Z,-4.91
2019-02-04T21:14:08.998Z,-4.99
2019-02-04T21:16:38.220Z,-4.92
2019-02-04T21:19:07.476Z,-5.14
2019-02-04T21:21:36.780Z,-5.30
2019-02-04T21:24:06.382Z,-5.23
2019-02-04T21:26:35.611Z,-5.50
2019-02-04T21:29:05.494Z,-5.64
2019-02-04T21:31:35.745Z,-5.88
2019-02-04T21:34:05.409Z,-5.86
2019-02-04T21:36:34.659Z,-5.70
2019-02-04T21:39:05.813Z,-5.73
2019-02-04T21:41:35.426Z,-5.63
2019-02-04T21:44:06.109Z,-5.62
2019-02-04T21:46:35.333Z,-5.53
2019-02-04T21:49:04.778Z,-5.45
2019-02-04T21:51:35.064Z,-5.41
2019-02-04T21:54:05.799Z,-5.34
2019-02-04T21:56:35.352Z,-5.34
2019-02-04T21:59:05.053Z,-5.27
2019-02-04T22:01:34.317Z,-5.18
2019-02-04T22:04:03.543Z,-5.09
2019-02-04T22:06:32.794Z,-4.99
2019-02-04T22:09:02.025Z,-4.93
2019-02-04T22:11:31.272Z,-4.94
2019-02-04T22:14:01.030Z,-4.85
2019-02-04T22:16:30.293Z,-4.77
2019-02-04T22:18:59.909Z,-4.77
2019-02-04T22:21:29.178Z,-4.70
2019-02-04T22:23:59.680Z,-4.65
2019-02-04T22:26:30.409Z,-4.64
2019-02-04T22:28:59.950Z,-4.53
2019-02-04T22:31:29.225Z,-4.58
2019-02-04T22:33:58.821Z,-4.65
2019-02-04T22:36:28.354Z,-4.61
2019-02-04T22:38:57.589Z,-4.60
2019-02-04T22:41:26.855Z,-4.62
2019-02-04T22:43:56.095Z,-4.64
2019-02-04T22:46:25.638Z,-4.73
2019-02-04T22:48:57.706Z,-4.95
2019-02-04T22:51:27.017Z,-5.02
2019-02-04T22:53:56.248Z,-5.27
2019-02-04T22:56:25.874Z,-5.38
2019-02-04T22:58:55.128Z,-5.19
2019-02-04T23:01:49.792Z,-5.29
2019-02-04T23:04:19.342Z,-5.31
2019-02-04T23:06:48.586Z,-5.60
2019-02-04T23:09:17.891Z,-5.79
2019-02-04T23:11:47.276Z,-5.75
2019-02-04T23:14:16.938Z,-5.67
2019-02-04T23:16:46.189Z,-5.51
2019-02-04T23:19:15.412Z,-5.43
2019-02-04T23:21:46.334Z,-5.35
2019-02-04T23:24:18.117Z,-5.26
2019-02-04T23:26:47.401Z,-5.33
2019-02-04T23:29:16.630Z,-5.51
2019-02-04T23:31:45.898Z,-5.64
2019-02-04T23:34:15.416Z,-5.72
2019-02-04T23:36:45.598Z,-5.48
2019-02-04T23:39:14.837Z,-5.42
2019-02-04T23:41:44.057Z,-5.63
2019-02-04T23:44:13.313Z,-5.76
2019-02-04T23:46:49.719Z,-5.72
2019-02-04T23:49:19.000Z,-5.76
2019-02-04T23:51:48.274Z,-5.80
2019-02-04T23:54:17.525Z,-5.69
2019-02-04T23:56:46.985Z,-5.67
2019-02-04T23:59:16.293Z,-5.68
